sensor_id;sensor_type;location;lat;lon;timestamp;pressure;altitude;pressure_sealevel;temperature;humidity
7986;BME280;4038;42.612;23.066;2022-09-20T00:00:25;93141.75;;;12.32;65.65
7986;BME280;4038;42.612;23.066;2022-09-20T00:02:51;93145.53;;;12.12;66.22
7986;BME280;4038;42.612;23.066;2022-09-20T00:05:17;93125.75;;;12.25;65.52
7986;BME280;4038;42.612;23.066;2022-09-20T00:07:45;93134.00;;;12.25;65.82
7986;BME280;4038;42.612;23.066;2022-09-20T00:10:10;93148.06;;;12.04;65.26
7986;BME280;4038;42.612;23.066;2022-09-20T00:12:36;93151.09;;;12.01;65.14
7986;BME280;4038;42.612;23.066;2022-09-20T00:15:03;93133.47;;;12.37;63.74
7986;BME280;4038;42.612;23.066;2022-09-20T00:17:29;93148.78;;;12.22;64.22
7986;BME280;4038;42.612;23.066;2022-09-20T00:19:54;93146.53;;;12.20;64.19
7986;BME280;4038;42.612;23.066;2022-09-20T00:22:20;93152.34;;;11.89;65.39
7986;BME280;4038;42.612;23.066;2022-09-20T00:24:45;93156.50;;;12.29;63.71
7986;BME280;4038;42.612;23.066;2022-09-20T00:27:11;93153.63;;;11.82;64.54
7986;BME280;4038;42.612;23.066;2022-09-20T00:29:37;93155.63;;;11.59;65.35
7986;BME280;4038;42.612;23.066;2022-09-20T00:32:02;93160.63;;;11.33;65.40
7986;BME280;4038;42.612;23.066;2022-09-20T00:34:28;93152.13;;;11.59;64.46
7986;BME280;4038;42.612;23.066;2022-09-20T00:37:12;93147.88;;;11.86;63.62
7986;BME280;4038;42.612;23.066;2022-09-20T00:39:37;93144.88;;;11.56;64.76
7986;BME280;4038;42.612;23.066;2022-09-20T00:42:03;93137.88;;;11.71;64.77
7986;BME280;4038;42.612;23.066;2022-09-20T00:47:25;93136.56;;;12.17;64.09
7986;BME280;4038;42.612;23.066;2022-09-20T00:49:58;93118.88;;;11.68;63.72
7986;BME280;4038;42.612;23.066;2022-09-20T00:52:26;93142.31;;;12.13;63.17
7986;BME280;4038;42.612;23.066;2022-09-20T00:54:53;93128.78;;;12.21;62.54
7986;BME280;4038;42.612;23.066;2022-09-20T00:57:19;93144.78;;;12.23;62.40
7986;BME280;4038;42.612;23.066;2022-09-20T00:59:46;93132.91;;;12.50;61.23
7986;BME280;4038;42.612;23.066;2022-09-20T01:02:19;93146.22;;;12.35;61.89
7986;BME280;4038;42.612;23.066;2022-09-20T01:04:46;93151.38;;;11.81;62.88
7986;BME280;4038;42.612;23.066;2022-09-20T01:07:15;93145.53;;;12.12;62.65
7986;BME280;4038;42.612;23.066;2022-09-20T01:09:41;93139.81;;;12.16;61.72
7986;BME280;4038;42.612;23.066;2022-09-20T01:12:11;93138.28;;;12.20;62.09
7986;BME280;4038;42.612;23.066;2022-09-20T01:14:38;93147.84;;;11.91;63.44
7986;BME280;4038;42.612;23.066;2022-09-20T01:17:05;93138.50;;;12.28;62.02
7986;BME280;4038;42.612;23.066;2022-09-20T01:22:13;93138.03;;;12.18;62.83
7986;BME280;4038;42.612;23.066;2022-09-20T01:30:05;93142.47;;;12.84;60.11
7986;BME280;4038;42.612;23.066;2022-09-20T01:32:44;93153.09;;;13.10;59.68
7986;BME280;4038;42.612;23.066;2022-09-20T01:35:13;93152.78;;;12.21;61.87
7986;BME280;4038;42.612;23.066;2022-09-20T01:40:25;93168.56;;;12.09;63.13
7986;BME280;4038;42.612;23.066;2022-09-20T01:43:09;93130.38;;;11.83;62.67
7986;BME280;4038;42.612;23.066;2022-09-20T01:45:42;93152.34;;;11.94;63.06
7986;BME280;4038;42.612;23.066;2022-09-20T02:09:40;93132.81;;;12.15;63.46
7986;BME280;4038;42.612;23.066;2022-09-20T02:39:36;93144.88;;;11.78;64.47
7986;BME280;4038;42.612;23.066;2022-09-20T02:42:16;93141.88;;;11.76;64.03
7986;BME280;4038;42.612;23.066;2022-09-20T02:44:58;93142.34;;;11.91;63.64
7986;BME280;4038;42.612;23.066;2022-09-20T02:47:35;93140.44;;;11.30;65.48
7986;BME280;4038;42.612;23.066;2022-09-20T02:53:02;93138.16;;;11.46;65.03
7986;BME280;4038;42.612;23.066;2022-09-20T02:55:40;93145.63;;;11.79;64.53
7986;BME280;4038;42.612;23.066;2022-09-20T02:58:35;93149.38;;;11.81;64.59
7986;BME280;4038;42.612;23.066;2022-09-20T03:09:12;93152.38;;;11.33;65.22
7986;BME280;4038;42.612;23.066;2022-09-20T03:18:10;93152.66;;;11.29;66.29
7986;BME280;4038;42.612;23.066;2022-09-20T03:36:47;93161.63;;;11.63;65.33
7986;BME280;4038;42.612;23.066;2022-09-20T03:42:17;93165.59;;;11.73;63.92
7986;BME280;4038;42.612;23.066;2022-09-20T03:50:59;93156.72;;;10.36;69.07
7986;BME280;4038;42.612;23.066;2022-09-20T04:04:29;93173.09;;;10.19;68.96
7986;BME280;4038;42.612;23.066;2022-09-20T04:07:20;93179.16;;;10.45;68.44
7986;BME280;4038;42.612;23.066;2022-09-20T04:20:49;93191.91;;;10.54;68.96
7986;BME280;4038;42.612;23.066;2022-09-20T04:26:19;93190.41;;;10.05;70.41
7986;BME280;4038;42.612;23.066;2022-09-20T04:28:54;93194.53;;;10.21;69.92
7986;BME280;4038;42.612;23.066;2022-09-20T04:31:38;93202.19;;;10.16;70.08
7986;BME280;4038;42.612;23.066;2022-09-20T04:34:41;93192.25;;;10.73;67.76
7986;BME280;4038;42.612;23.066;2022-09-20T04:37:37;93200.16;;;10.60;68.66
7986;BME280;4038;42.612;23.066;2022-09-20T04:40:20;93193.28;;;10.92;67.58
7986;BME280;4038;42.612;23.066;2022-09-20T05:00:23;93195.66;;;13.09;60.12
7986;BME280;4038;42.612;23.066;2022-09-20T05:27:45;93222.22;;;16.77;47.32
7986;BME280;4038;42.612;23.066;2022-09-20T05:30:45;93218.44;;;17.01;47.35
7986;BME280;4038;42.612;23.066;2022-09-20T05:35:47;93217.16;;;17.63;45.28
7986;BME280;4038;42.612;23.066;2022-09-20T05:38:25;93224.09;;;17.90;45.17
7986;BME280;4038;42.612;23.066;2022-09-20T05:43:30;93224.84;;;17.09;47.04
7986;BME280;4038;42.612;23.066;2022-09-20T05:51:32;93216.13;;;17.39;45.31
7986;BME280;4038;42.612;23.066;2022-09-20T05:59:37;93208.00;;;19.23;40.63
7986;BME280;4038;42.612;23.066;2022-09-20T06:04:54;93216.44;;;20.42;37.83
7986;BME280;4038;42.612;23.066;2022-09-20T06:21:17;93214.69;;;22.77;33.73
7986;BME280;4038;42.612;23.066;2022-09-20T06:23:47;93220.69;;;22.24;33.89
7986;BME280;4038;42.612;23.066;2022-09-20T06:26:15;93203.84;;;22.98;32.79
7986;BME280;4038;42.612;23.066;2022-09-20T06:28:46;93209.00;;;22.43;33.90
7986;BME280;4038;42.612;23.066;2022-09-20T06:31:14;93216.38;;;23.15;32.77
7986;BME280;4038;42.612;23.066;2022-09-20T06:33:44;93220.41;;;23.04;33.23
7986;BME280;4038;42.612;23.066;2022-09-20T06:36:15;93208.88;;;23.69;31.77
7986;BME280;4038;42.612;23.066;2022-09-20T06:39:04;93210.03;;;21.98;34.09
7986;BME280;4038;42.612;23.066;2022-09-20T06:41:51;93224.66;;;21.33;34.96
7986;BME280;4038;42.612;23.066;2022-09-20T06:44:16;93218.28;;;20.47;36.72
7986;BME280;4038;42.612;23.066;2022-09-20T06:46:42;93221.06;;;20.17;37.76
7986;BME280;4038;42.612;23.066;2022-09-20T06:49:08;93221.81;;;21.49;36.38
7986;BME280;4038;42.612;23.066;2022-09-20T06:51:38;93220.81;;;21.06;36.45
7986;BME280;4038;42.612;23.066;2022-09-20T06:54:04;93225.31;;;20.18;37.56
7986;BME280;4038;42.612;23.066;2022-09-20T06:56:32;93233.16;;;20.57;37.08
7986;BME280;4038;42.612;23.066;2022-09-20T06:59:00;93234.63;;;21.99;34.64
7986;BME280;4038;42.612;23.066;2022-09-20T07:01:25;93226.88;;;22.89;32.97
7986;BME280;4038;42.612;23.066;2022-09-20T07:03:51;93213.75;;;21.68;34.43
7986;BME280;4038;42.612;23.066;2022-09-20T07:06:16;93225.50;;;21.91;34.36
7986;BME280;4038;42.612;23.066;2022-09-20T07:08:44;93232.75;;;22.02;33.67
7986;BME280;4038;42.612;23.066;2022-09-20T07:11:12;93234.16;;;19.71;37.42
7986;BME280;4038;42.612;23.066;2022-09-20T07:13:39;93242.13;;;17.63;41.54
7986;BME280;4038;42.612;23.066;2022-09-20T07:16:06;93246.84;;;15.91;45.62
7986;BME280;4038;42.612;23.066;2022-09-20T07:18:32;93246.91;;;15.85;46.88
7986;BME280;4038;42.612;23.066;2022-09-20T07:21:02;93225.81;;;18.91;41.09
7986;BME280;4038;42.612;23.066;2022-09-20T07:23:28;93242.81;;;20.72;37.45
7986;BME280;4038;42.612;23.066;2022-09-20T07:26:24;93240.53;;;18.09;41.30
7986;BME280;4038;42.612;23.066;2022-09-20T07:28:55;93206.88;;;16.76;43.02
7986;BME280;4038;42.612;23.066;2022-09-20T07:31:28;93230.44;;;17.98;42.20
7986;BME280;4038;42.612;23.066;2022-09-20T07:33:54;93225.97;;;17.27;42.86
7986;BME280;4038;42.612;23.066;2022-09-20T07:36:22;93237.72;;;17.20;42.91
7986;BME280;4038;42.612;23.066;2022-09-20T07:38:49;93232.22;;;18.29;41.38
7986;BME280;4038;42.612;23.066;2022-09-20T07:41:15;93230.22;;;17.41;42.52
7986;BME280;4038;42.612;23.066;2022-09-20T07:43:43;93236.34;;;17.61;42.45
7986;BME280;4038;42.612;23.066;2022-09-20T07:46:09;93238.16;;;16.71;44.78
7986;BME280;4038;42.612;23.066;2022-09-20T07:48:42;93223.50;;;17.37;43.86
7986;BME280;4038;42.612;23.066;2022-09-20T07:51:12;93234.25;;;17.40;43.98
7986;BME280;4038;42.612;23.066;2022-09-20T07:53:39;93229.63;;;17.56;42.49
7986;BME280;4038;42.612;23.066;2022-09-20T07:56:13;93240.47;;;17.33;43.61
7986;BME280;4038;42.612;23.066;2022-09-20T07:58:39;93231.66;;;17.08;44.15
7986;BME280;4038;42.612;23.066;2022-09-20T08:01:06;93236.25;;;16.66;45.01
7986;BME280;4038;42.612;23.066;2022-09-20T08:03:33;93230.50;;;16.64;44.80
7986;BME280;4038;42.612;23.066;2022-09-20T08:08:31;93224.25;;;17.37;43.05
7986;BME280;4038;42.612;23.066;2022-09-20T08:11:02;93235.78;;;17.15;42.38
7986;BME280;4038;42.612;23.066;2022-09-20T08:13:29;93232.81;;;16.34;42.86
7986;BME280;4038;42.612;23.066;2022-09-20T08:16:02;93233.19;;;16.12;43.71
7986;BME280;4038;42.612;23.066;2022-09-20T08:18:29;93234.91;;;15.83;44.39
7986;BME280;4038;42.612;23.066;2022-09-20T08:20:55;93224.06;;;15.53;44.53
7986;BME280;4038;42.612;23.066;2022-09-20T08:23:20;93229.56;;;16.17;44.00
7986;BME280;4038;42.612;23.066;2022-09-20T08:25:46;93227.91;;;16.40;42.72
7986;BME280;4038;42.612;23.066;2022-09-20T08:28:13;93225.59;;;15.67;44.00
7986;BME280;4038;42.612;23.066;2022-09-20T08:30:39;93217.31;;;15.48;44.01
7986;BME280;4038;42.612;23.066;2022-09-20T08:33:04;93221.41;;;15.92;43.24
7986;BME280;4038;42.612;23.066;2022-09-20T08:35:34;93209.69;;;17.10;40.75
7986;BME280;4038;42.612;23.066;2022-09-20T08:37:59;93216.91;;;17.74;40.60
7986;BME280;4038;42.612;23.066;2022-09-20T08:40:25;93222.72;;;17.63;41.15
7986;BME280;4038;42.612;23.066;2022-09-20T08:42:54;93203.47;;;16.84;42.56
7986;BME280;4038;42.612;23.066;2022-09-20T08:45:22;93216.38;;;16.23;43.20
7986;BME280;4038;42.612;23.066;2022-09-20T08:47:59;93209.63;;;15.92;43.62
7986;BME280;4038;42.612;23.066;2022-09-20T08:50:26;93210.97;;;15.85;42.56
7986;BME280;4038;42.612;23.066;2022-09-20T08:52:54;93208.66;;;16.87;40.58
7986;BME280;4038;42.612;23.066;2022-09-20T08:55:24;93205.00;;;18.28;40.14
7986;BME280;4038;42.612;23.066;2022-09-20T08:57:54;93189.50;;;19.40;35.59
7986;BME280;4038;42.612;23.066;2022-09-20T09:00:31;93198.31;;;19.67;34.47
7986;BME280;4038;42.612;23.066;2022-09-20T09:03:02;93192.47;;;20.54;33.42
7986;BME280;4038;42.612;23.066;2022-09-20T09:05:32;93199.72;;;20.42;34.17
7986;BME280;4038;42.612;23.066;2022-09-20T09:08:10;93190.47;;;18.43;37.76
7986;BME280;4038;42.612;23.066;2022-09-20T09:10:42;93186.50;;;18.30;38.50
7986;BME280;4038;42.612;23.066;2022-09-20T09:13:41;93187.84;;;17.20;39.97
7986;BME280;4038;42.612;23.066;2022-09-20T09:16:12;93183.69;;;17.47;40.20
7986;BME280;4038;42.612;23.066;2022-09-20T09:18:40;93179.69;;;17.90;38.51
7986;BME280;4038;42.612;23.066;2022-09-20T09:21:07;93171.84;;;18.51;36.85
7986;BME280;4038;42.612;23.066;2022-09-20T09:23:40;93165.50;;;19.07;36.90
7986;BME280;4038;42.612;23.066;2022-09-20T09:26:15;93170.53;;;20.74;34.32
7986;BME280;4038;42.612;23.066;2022-09-20T09:28:40;93168.25;;;21.50;33.12
7986;BME280;4038;42.612;23.066;2022-09-20T09:31:24;93167.66;;;18.57;37.82
7986;BME280;4038;42.612;23.066;2022-09-20T09:33:52;93166.00;;;17.16;40.93
7986;BME280;4038;42.612;23.066;2022-09-20T09:36:22;93162.41;;;17.29;40.96
7986;BME280;4038;42.612;23.066;2022-09-20T09:38:49;93165.75;;;17.62;40.31
7986;BME280;4038;42.612;23.066;2022-09-20T09:46:44;93167.53;;;19.06;38.08
7986;BME280;4038;42.612;23.066;2022-09-20T09:49:18;93176.00;;;18.37;37.72
7986;BME280;4038;42.612;23.066;2022-09-20T09:54:58;93168.38;;;19.37;36.12
7986;BME280;4038;42.612;23.066;2022-09-20T10:00:22;93146.28;;;20.36;34.55
7986;BME280;4038;42.612;23.066;2022-09-20T10:17:10;93154.44;;;20.34;36.19
7986;BME280;4038;42.612;23.066;2022-09-20T10:22:16;93155.31;;;19.83;34.96
7986;BME280;4038;42.612;23.066;2022-09-20T10:25:24;93161.03;;;20.84;34.08
7986;BME280;4038;42.612;23.066;2022-09-20T10:30:30;93147.19;;;19.85;35.01
7986;BME280;4038;42.612;23.066;2022-09-20T10:33:09;93156.75;;;18.67;37.57
7986;BME280;4038;42.612;23.066;2022-09-20T10:38:24;93143.69;;;17.98;37.03
7986;BME280;4038;42.612;23.066;2022-09-20T10:46:44;93161.84;;;19.27;35.38
7986;BME280;4038;42.612;23.066;2022-09-20T10:55:23;93159.56;;;20.68;32.80
7986;BME280;4038;42.612;23.066;2022-09-20T10:58:18;93152.63;;;21.47;32.05
7986;BME280;4038;42.612;23.066;2022-09-20T11:01:00;93158.88;;;20.22;34.90
7986;BME280;4038;42.612;23.066;2022-09-20T11:08:51;93153.44;;;19.04;36.95
7986;BME280;4038;42.612;23.066;2022-09-20T11:11:22;93143.00;;;18.90;36.76
7986;BME280;4038;42.612;23.066;2022-09-20T11:14:05;93150.75;;;18.84;37.12
7986;BME280;4038;42.612;23.066;2022-09-20T11:16:39;93162.94;;;20.13;34.16
7986;BME280;4038;42.612;23.066;2022-09-20T11:22:15;93136.78;;;19.86;34.44
7986;BME280;4038;42.612;23.066;2022-09-20T11:24:44;93144.25;;;18.53;37.23
7986;BME280;4038;42.612;23.066;2022-09-20T11:27:19;93133.13;;;18.81;36.02
7986;BME280;4038;42.612;23.066;2022-09-20T11:33:18;93137.53;;;20.40;33.43
7986;BME280;4038;42.612;23.066;2022-09-20T11:35:49;93117.72;;;21.38;32.38
7986;BME280;4038;42.612;23.066;2022-09-20T11:38:24;93122.03;;;20.77;33.19
7986;BME280;4038;42.612;23.066;2022-09-20T11:40:57;93120.47;;;19.08;35.70
7986;BME280;4038;42.612;23.066;2022-09-20T11:43:27;93125.50;;;18.17;36.80
7986;BME280;4038;42.612;23.066;2022-09-20T11:46:00;93128.78;;;18.08;37.08
7986;BME280;4038;42.612;23.066;2022-09-20T11:48:36;93099.03;;;19.32;35.48
7986;BME280;4038;42.612;23.066;2022-09-20T11:54:10;93107.53;;;20.78;32.74
7986;BME280;4038;42.612;23.066;2022-09-20T11:56:40;93113.56;;;21.07;31.48
7986;BME280;4038;42.612;23.066;2022-09-20T11:59:36;93100.97;;;19.67;33.89
7986;BME280;4038;42.612;23.066;2022-09-20T12:02:14;93105.34;;;18.81;36.23
7986;BME280;4038;42.612;23.066;2022-09-20T12:04:44;93115.00;;;18.23;37.14
7986;BME280;4038;42.612;23.066;2022-09-20T12:07:34;93113.03;;;18.31;37.73
7986;BME280;4038;42.612;23.066;2022-09-20T12:10:24;93105.28;;;19.17;35.72
7986;BME280;4038;42.612;23.066;2022-09-20T12:18:35;93105.25;;;19.09;34.65
7986;BME280;4038;42.612;23.066;2022-09-20T12:21:04;93102.44;;;20.29;33.50
7986;BME280;4038;42.612;23.066;2022-09-20T12:28:51;93101.44;;;21.12;32.22
7986;BME280;4038;42.612;23.066;2022-09-20T12:33:57;93088.97;;;19.06;35.74
7986;BME280;4038;42.612;23.066;2022-09-20T12:36:28;93094.50;;;18.98;35.99
7986;BME280;4038;42.612;23.066;2022-09-20T12:39:24;93094.00;;;19.23;35.68
7986;BME280;4038;42.612;23.066;2022-09-20T12:42:04;93093.47;;;19.32;35.82
7986;BME280;4038;42.612;23.066;2022-09-20T12:49:49;93096.88;;;19.68;34.52
7986;BME280;4038;42.612;23.066;2022-09-20T12:58:22;93087.25;;;19.69;34.17
7986;BME280;4038;42.612;23.066;2022-09-20T13:09:01;93069.06;;;19.83;34.25
7986;BME280;4038;42.612;23.066;2022-09-20T13:11:48;93093.41;;;18.29;36.65
7986;BME280;4038;42.612;23.066;2022-09-20T13:14:24;93083.97;;;19.12;35.84
7986;BME280;4038;42.612;23.066;2022-09-20T13:19:36;93080.91;;;20.14;34.52
7986;BME280;4038;42.612;23.066;2022-09-20T13:22:21;93078.56;;;20.81;33.27
7986;BME280;4038;42.612;23.066;2022-09-20T13:24:51;93080.88;;;21.40;32.53
7986;BME280;4038;42.612;23.066;2022-09-20T13:29:53;93076.84;;;19.77;34.66
7986;BME280;4038;42.612;23.066;2022-09-20T13:32:29;93081.34;;;20.81;33.63
7986;BME280;4038;42.612;23.066;2022-09-20T13:37:33;93085.72;;;20.52;33.09
7986;BME280;4038;42.612;23.066;2022-09-20T13:39:59;93074.63;;;20.06;33.80
7986;BME280;4038;42.612;23.066;2022-09-20T13:42:27;93070.91;;;19.58;34.79
7986;BME280;4038;42.612;23.066;2022-09-20T13:44:54;93076.47;;;19.51;35.56
7986;BME280;4038;42.612;23.066;2022-09-20T13:47:29;93068.97;;;19.07;35.76
7986;BME280;4038;42.612;23.066;2022-09-20T13:52:52;93069.25;;;20.01;34.78
7986;BME280;4038;42.612;23.066;2022-09-20T13:57:47;93061.97;;;19.37;34.86
7986;BME280;4038;42.612;23.066;2022-09-20T14:00:13;93074.25;;;19.57;34.47
7986;BME280;4038;42.612;23.066;2022-09-20T14:02:40;93066.47;;;19.70;34.56
7986;BME280;4038;42.612;23.066;2022-09-20T14:05:06;93064.81;;;18.50;35.12
7986;BME280;4038;42.612;23.066;2022-09-20T14:07:42;93069.72;;;19.16;34.71
7986;BME280;4038;42.612;23.066;2022-09-20T14:10:37;93079.63;;;20.23;33.47
7986;BME280;4038;42.612;23.066;2022-09-20T14:13:10;93072.38;;;20.20;33.15
7986;BME280;4038;42.612;23.066;2022-09-20T14:15:42;93062.72;;;20.21;33.75
7986;BME280;4038;42.612;23.066;2022-09-20T14:18:13;93043.50;;;20.63;33.20
7986;BME280;4038;42.612;23.066;2022-09-20T14:20:42;93070.53;;;19.77;34.17
7986;BME280;4038;42.612;23.066;2022-09-20T14:23:47;93074.16;;;21.11;32.91
7986;BME280;4038;42.612;23.066;2022-09-20T14:26:29;93067.91;;;21.35;32.12
7986;BME280;4038;42.612;23.066;2022-09-20T14:32:06;93070.94;;;19.66;33.47
7986;BME280;4038;42.612;23.066;2022-09-20T14:34:37;93069.41;;;20.03;33.59
7986;BME280;4038;42.612;23.066;2022-09-20T14:39:52;93080.56;;;19.72;35.72
7986;BME280;4038;42.612;23.066;2022-09-20T14:42:47;93079.09;;;19.94;34.86
7986;BME280;4038;42.612;23.066;2022-09-20T14:45:28;93081.69;;;20.00;35.62
7986;BME280;4038;42.612;23.066;2022-09-20T14:48:27;93084.84;;;19.58;36.70
7986;BME280;4038;42.612;23.066;2022-09-20T14:53:38;93078.59;;;19.06;36.38
7986;BME280;4038;42.612;23.066;2022-09-20T14:58:29;93071.47;;;18.83;36.32
7986;BME280;4038;42.612;23.066;2022-09-20T15:01:01;93076.09;;;18.80;36.08
7986;BME280;4038;42.612;23.066;2022-09-20T15:03:36;93071.53;;;19.05;36.94
7986;BME280;4038;42.612;23.066;2022-09-20T15:06:04;93072.88;;;19.20;36.95
7986;BME280;4038;42.612;23.066;2022-09-20T15:08:33;93073.69;;;18.84;37.81
7986;BME280;4038;42.612;23.066;2022-09-20T15:10:58;93065.22;;;18.97;37.33
7986;BME280;4038;42.612;23.066;2022-09-20T15:13:24;93069.16;;;18.30;38.24
7986;BME280;4038;42.612;23.066;2022-09-20T15:15:52;93070.75;;;18.54;37.71
7986;BME280;4038;42.612;23.066;2022-09-20T15:18:29;93076.50;;;18.20;39.30
7986;BME280;4038;42.612;23.066;2022-09-20T15:20:58;93068.53;;;17.88;40.33
7986;BME280;4038;42.612;23.066;2022-09-20T15:23:24;93073.38;;;18.23;40.43
7986;BME280;4038;42.612;23.066;2022-09-20T15:25:50;93076.47;;;18.12;41.09
7986;BME280;4038;42.612;23.066;2022-09-20T15:28:17;93078.09;;;18.36;40.65
7986;BME280;4038;42.612;23.066;2022-09-20T15:30:44;93087.31;;;18.03;41.84
7986;BME280;4038;42.612;23.066;2022-09-20T15:33:10;93087.13;;;17.80;42.53
7986;BME280;4038;42.612;23.066;2022-09-20T15:35:38;93079.69;;;17.33;43.70
7986;BME280;4038;42.612;23.066;2022-09-20T15:38:03;93086.91;;;17.15;43.22
7986;BME280;4038;42.612;23.066;2022-09-20T15:40:30;93080.94;;;16.91;42.86
7986;BME280;4038;42.612;23.066;2022-09-20T15:42:56;93090.69;;;17.05;43.69
7986;BME280;4038;42.612;23.066;2022-09-20T15:45:23;93085.59;;;16.96;43.25
7986;BME280;4038;42.612;23.066;2022-09-20T15:47:50;93087.63;;;16.95;43.31
7986;BME280;4038;42.612;23.066;2022-09-20T15:50:19;93077.50;;;16.64;43.95
7986;BME280;4038;42.612;23.066;2022-09-20T15:52:46;93091.97;;;17.04;43.42
7986;BME280;4038;42.612;23.066;2022-09-20T15:55:16;93093.16;;;16.95;44.09
7986;BME280;4038;42.612;23.066;2022-09-20T15:57:42;93092.06;;;16.77;44.29
7986;BME280;4038;42.612;23.066;2022-09-20T16:00:08;93099.97;;;16.60;44.28
7986;BME280;4038;42.612;23.066;2022-09-20T16:02:34;93095.88;;;15.69;46.12
7986;BME280;4038;42.612;23.066;2022-09-20T16:05:00;93093.03;;;16.01;46.16
7986;BME280;4038;42.612;23.066;2022-09-20T16:07:26;93092.94;;;16.07;45.94
7986;BME280;4038;42.612;23.066;2022-09-20T16:09:53;93102.38;;;15.72;46.31
7986;BME280;4038;42.612;23.066;2022-09-20T16:12:20;93111.41;;;15.85;46.13
7986;BME280;4038;42.612;23.066;2022-09-20T16:14:46;93111.22;;;15.70;46.06
7986;BME280;4038;42.612;23.066;2022-09-20T16:17:11;93087.38;;;15.35;47.06
7986;BME280;4038;42.612;23.066;2022-09-20T16:19:36;93110.97;;;15.68;46.95
7986;BME280;4038;42.612;23.066;2022-09-20T16:22:03;93107.44;;;15.36;48.22
7986;BME280;4038;42.612;23.066;2022-09-20T16:24:31;93101.97;;;15.49;48.51
7986;BME280;4038;42.612;23.066;2022-09-20T16:26:58;93116.06;;;15.32;49.11
7986;BME280;4038;42.612;23.066;2022-09-20T16:29:24;93116.03;;;15.00;49.54
7986;BME280;4038;42.612;23.066;2022-09-20T16:31:52;93116.88;;;14.95;50.61
7986;BME280;4038;42.612;23.066;2022-09-20T16:34:21;93123.34;;;14.79;50.84
7986;BME280;4038;42.612;23.066;2022-09-20T16:36:53;93111.94;;;14.88;50.15
7986;BME280;4038;42.612;23.066;2022-09-20T16:39:21;93105.09;;;14.76;50.49
7986;BME280;4038;42.612;23.066;2022-09-20T16:41:58;93116.13;;;14.76;50.96
7986;BME280;4038;42.612;23.066;2022-09-20T16:44:28;93118.91;;;14.76;50.77
7986;BME280;4038;42.612;23.066;2022-09-20T16:46:53;93115.31;;;14.62;50.34
7986;BME280;4038;42.612;23.066;2022-09-20T16:49:19;93107.91;;;14.70;50.26
7986;BME280;4038;42.612;23.066;2022-09-20T16:51:44;93128.13;;;14.78;50.54
7986;BME280;4038;42.612;23.066;2022-09-20T16:54:15;93123.38;;;14.98;49.81
7986;BME280;4038;42.612;23.066;2022-09-20T16:56:43;93125.81;;;15.01;50.10
7986;BME280;4038;42.612;23.066;2022-09-20T16:59:10;93124.41;;;14.76;51.00
7986;BME280;4038;42.612;23.066;2022-09-20T17:01:37;93131.72;;;14.55;51.29
7986;BME280;4038;42.612;23.066;2022-09-20T17:04:04;93125.06;;;14.63;50.70
7986;BME280;4038;42.612;23.066;2022-09-20T17:06:32;93136.06;;;14.69;51.13
7986;BME280;4038;42.612;23.066;2022-09-20T17:08:58;93115.59;;;14.40;50.89
7986;BME280;4038;42.612;23.066;2022-09-20T17:11:27;93136.50;;;14.54;51.24
7986;BME280;4038;42.612;23.066;2022-09-20T17:13:53;93133.56;;;14.47;51.60
7986;BME280;4038;42.612;23.066;2022-09-20T17:16:23;93140.81;;;14.87;50.99
7986;BME280;4038;42.612;23.066;2022-09-20T17:18:53;93137.31;;;14.87;50.96
7986;BME280;4038;42.612;23.066;2022-09-20T17:21:19;93143.78;;;14.52;52.27
7986;BME280;4038;42.612;23.066;2022-09-20T17:23:46;93148.66;;;15.02;50.63
7986;BME280;4038;42.612;23.066;2022-09-20T17:26:15;93140.19;;;14.57;52.01
7986;BME280;4038;42.612;23.066;2022-09-20T17:28:43;93150.59;;;14.26;53.22
7986;BME280;4038;42.612;23.066;2022-09-20T17:31:11;93152.22;;;14.40;52.81
7986;BME280;4038;42.612;23.066;2022-09-20T17:33:37;93150.41;;;14.43;52.63
7986;BME280;4038;42.612;23.066;2022-09-20T17:36:06;93143.16;;;14.83;51.53
7986;BME280;4038;42.612;23.066;2022-09-20T17:38:33;93148.25;;;14.12;53.41
7986;BME280;4038;42.612;23.066;2022-09-20T17:41:00;93157.38;;;14.25;52.79
7986;BME280;4038;42.612;23.066;2022-09-20T17:43:27;93148.34;;;14.25;52.04
7986;BME280;4038;42.612;23.066;2022-09-20T17:46:02;93151.81;;;13.77;53.24
7986;BME280;4038;42.612;23.066;2022-09-20T17:48:28;93163.13;;;13.73;54.06
7986;BME280;4038;42.612;23.066;2022-09-20T17:50:55;93154.91;;;13.97;53.19
7986;BME280;4038;42.612;23.066;2022-09-20T17:53:20;93162.66;;;14.23;52.40
7986;BME280;4038;42.612;23.066;2022-09-20T17:55:56;93162.66;;;14.48;52.03
7986;BME280;4038;42.612;23.066;2022-09-20T17:58:22;93164.59;;;14.04;53.50
7986;BME280;4038;42.612;23.066;2022-09-20T18:00:48;93164.59;;;14.28;53.39
7986;BME280;4038;42.612;23.066;2022-09-20T18:03:14;93168.25;;;14.12;53.89
7986;BME280;4038;42.612;23.066;2022-09-20T18:05:40;93155.19;;;14.18;53.34
7986;BME280;4038;42.612;23.066;2022-09-20T18:08:05;93170.06;;;14.10;53.78
7986;BME280;4038;42.612;23.066;2022-09-20T18:10:31;93175.03;;;14.35;53.40
7986;BME280;4038;42.612;23.066;2022-09-20T18:12:56;93170.59;;;14.75;53.02
7986;BME280;4038;42.612;23.066;2022-09-20T18:15:22;93168.03;;;14.77;51.82
7986;BME280;4038;42.612;23.066;2022-09-20T18:17:48;93162.53;;;14.96;51.64
7986;BME280;4038;42.612;23.066;2022-09-20T18:20:13;93172.78;;;14.39;53.56
7986;BME280;4038;42.612;23.066;2022-09-20T18:22:39;93172.78;;;13.55;53.96
7986;BME280;4038;42.612;23.066;2022-09-20T18:25:05;93171.81;;;12.71;57.11
7986;BME280;4038;42.612;23.066;2022-09-20T18:27:30;93179.78;;;12.22;59.98
7986;BME280;4038;42.612;23.066;2022-09-20T18:29:58;93181.56;;;11.97;60.62
7986;BME280;4038;42.612;23.066;2022-09-20T18:32:24;93185.22;;;12.39;59.26
7986;BME280;4038;42.612;23.066;2022-09-20T18:34:54;93173.38;;;12.55;58.88
7986;BME280;4038;42.612;23.066;2022-09-20T18:37:19;93176.72;;;12.37;59.90
7986;BME280;4038;42.612;23.066;2022-09-20T18:39:45;93185.53;;;12.82;59.09
7986;BME280;4038;42.612;23.066;2022-09-20T18:42:10;93179.84;;;12.63;59.56
7986;BME280;4038;42.612;23.066;2022-09-20T18:44:35;93178.63;;;12.59;59.84
7986;BME280;4038;42.612;23.066;2022-09-20T18:47:02;93182.69;;;12.99;59.28
7986;BME280;4038;42.612;23.066;2022-09-20T18:49:28;93176.09;;;12.66;59.48
7986;BME280;4038;42.612;23.066;2022-09-20T18:51:55;93174.13;;;12.56;60.46
7986;BME280;4038;42.612;23.066;2022-09-20T18:54:21;93180.31;;;12.09;61.21